Debord, KY

6:58 PM EST on February 06, 2016 (GMT -0500)
Big Sandy Reg AP, Prestonsbur | | Change Station
CLOSE
Current Station
Airport
Location: Big Sandy Reg AP, Prestonsbur,
Elevation: 1220 ft
Nearby Weather Stations

Elev 1220 ft 37.75 °N, 82.64 °W | Updated 23 minutes ago

Mostly Cloudy
Mostly Cloudy
45 °F
Feels Like 45 °F
N
0
Wind Variable Wind from North

Today
High -- | Low -- °F
--% Chance of Precip.
Yesterday
High -- | Low -- °F
Precip. -- in
Pressure 30.25 in
Visibility 10.0 miles
Clouds Mostly Cloudy 7000 ft
Dew Point 21 °F
Humidity 39%
Rainfall 0.00 in
Snow Depth Not available.
7:30 AM 5:59 PM
Waning Crescent, 3% visible
METAR KSJS 062335Z AUTO 00000KT 10SM BKN070 07/M06 A3025 RMK AO2 T00731059
Pressure 30.25 in
Visibility 10.0 miles
Clouds Mostly Cloudy 7000 ft
Dew Point 21 °F
Humidity 39%
Rainfall 0.00 in
Snow Depth Not available.
7:30 AM 5:59 PM
Waning Crescent, 3% visible
METAR KSJS 062335Z AUTO 00000KT 10SM BKN070 07/M06 A3025 RMK AO2 T00731059

10-Day Weather Forecast

Almanac

Astronomy

Feb. 06, 2016 Rise Set
Actual Time
Civil Twilight
Nautical Twilight
Astronomical Twilight
Moon
Length of Visible Light
Length of Day
Tomorrow will be .
, % of the Moon is Illuminated

Today's Extremes

State Highs State Lows

Community

WunderPhotos

Upload Photos

1,891,098 photos uploaded!

WunderBlog® & News

Nearby

Air Quality

  Air Quality AQ Index Pollutant
Not available.

Snow Depth

Station Depth Elevation

Earthquake Activity

City Distance Mag. Time & Date
Minimum magnitude displayed is 2.5.

Coastal Water Temperatures

Place Temperature

Stations

Nearby Weather Stations

Station Location Temp. Windchill Dew Point Humidity Wind Precip. Elev Updated Type
                   

Watches & Warnings

There are currently no watches in effect.